Time;durP1;ratioP1;P1;durP2;ratioP2;P2;SDS_P1;SDS_P2;PMS_P1;PMS_P2;Temp;Humidity;BMP_temperature;BMP_pressure;BME280_temperature;BME280_humidity;BME280_pressure;Samples;Min_cycle;Max_cycle;Signal;HPM_P1;HPM_P2
2021/11/28 00:00:06;;;;;;;3.70;1.90;;;19.70;54.00;;;;;;4944258;29;20265;-53
2021/11/28 00:02:37;;;;;;;2.95;1.80;;;19.70;54.10;;;;;;4940326;28;20254;-47
2021/11/28 00:05:09;;;;;;;3.63;1.40;;;19.70;54.20;;;;;;4945690;28;20610;-51
2021/11/28 00:08:04;;;;;;;3.10;1.30;;;19.70;54.10;;;;;;4944794;29;20254;-51
2021/11/28 00:16:22;;;;;;;2.50;1.55;;;19.70;54.30;;;;;;4945192;28;20203;-52
2021/11/28 00:18:53;;;;;;;3.33;1.23;;;19.80;54.30;;;;;;4940204;29;20202;-50
2021/11/28 00:21:24;;;;;;;3.03;1.65;;;19.80;54.30;;;;;;4939062;28;20286;-50
2021/11/28 00:23:54;;;;;;;2.88;1.77;;;19.80;54.40;;;;;;4945999;29;20206;-48
2021/11/28 00:26:25;;;;;;;5.13;1.70;;;19.80;54.60;;;;;;4940916;28;20531;-50
2021/11/28 00:28:56;;;;;;;4.20;1.67;;;19.80;54.70;;;;;;4942207;28;20207;-49
2021/11/28 00:31:28;;;;;;;3.15;1.30;;;19.80;54.50;;;;;;4944571;29;20199;-50
2021/11/28 00:33:59;;;;;;;4.22;1.27;;;19.80;54.90;;;;;;4939071;28;20250;-50
2021/11/28 00:36:29;;;;;;;2.63;1.33;;;19.90;54.30;;;;;;4943772;28;20682;-49
2021/11/28 00:39:00;;;;;;;4.18;1.83;;;19.90;54.50;;;;;;4944423;29;20245;-48
2021/11/28 00:41:31;;;;;;;2.72;1.60;;;19.90;54.40;;;;;;4938347;29;20227;-48
2021/11/28 00:44:01;;;;;;;2.72;1.35;;;19.90;54.20;;;;;;4946496;28;20203;-49
2021/11/28 00:46:34;;;;;;;3.10;1.92;;;19.90;54.20;;;;;;4944083;29;20313;-52
2021/11/28 00:49:11;;;;;;;5.43;1.92;;;19.90;54.30;;;;;;4939625;28;20563;-49
2021/11/28 00:51:51;;;;;;;4.65;2.30;;;19.90;54.40;;;;;;4945744;29;20209;-48
2021/11/28 00:54:21;;;;;;;6.20;2.78;;;19.90;54.40;;;;;;4943201;28;20204;-50
2021/11/28 00:56:52;;;;;;;6.13;2.50;;;19.90;54.50;;;;;;4939650;28;20620;-48
2021/11/28 00:59:23;;;;;;;5.78;2.83;;;20.00;54.60;;;;;;4946253;28;20203;-47
2021/11/28 01:01:55;;;;;;;7.70;3.10;;;20.00;54.60;;;;;;4942191;28;20222;-50
2021/11/28 01:04:26;;;;;;;9.45;3.72;;;20.00;54.60;;;;;;4941260;28;20207;-52
2021/11/28 01:06:57;;;;;;;7.55;3.35;;;20.00;55.00;;;;;;4945394;29;20318;-49
2021/11/28 01:09:27;;;;;;;9.48;3.10;;;20.00;55.10;;;;;;4939839;29;20206;-49
2021/11/28 01:11:58;;;;;;;8.45;3.53;;;20.00;55.00;;;;;;4942128;28;20206;-50
2021/11/28 01:14:28;;;;;;;7.18;3.22;;;20.00;55.00;;;;;;4937588;29;20271;-42
2021/11/28 01:17:01;;;;;;;12.95;2.92;;;20.00;55.00;;;;;;4929974;29;20282;-51
2021/11/28 01:19:33;;;;;;;10.55;2.78;;;20.00;55.30;;;;;;4929407;29;20856;-48
2021/11/28 01:22:07;;;;;;;8.35;2.47;;;20.00;55.30;;;;;;4933929;29;20227;-50
2021/11/28 01:24:38;;;;;;;6.82;2.45;;;20.00;55.30;;;;;;4933199;29;20191;-48
2021/11/28 01:27:12;;;;;;;5.57;2.33;;;20.00;55.40;;;;;;4933934;29;20279;-49
2021/11/28 01:29:43;;;;;;;11.18;2.85;;;20.00;55.40;;;;;;4933724;29;20606;-50
2021/11/28 01:32:16;;;;;;;9.35;2.60;;;20.00;55.50;;;;;;4931337;29;20638;-49
2021/11/28 01:34:47;;;;;;;4.15;2.28;;;20.00;55.40;;;;;;4934517;29;20199;-47
2021/11/28 01:37:17;;;;;;;6.38;2.55;;;20.10;55.40;;;;;;4934239;29;20275;-49
2021/11/28 01:39:48;;;;;;;7.93;2.05;;;20.10;55.40;;;;;;4932378;29;20204;-50
2021/11/28 01:42:35;;;;;;;5.03;2.28;;;20.10;55.50;;;;;;4932674;29;20879;-48
2021/11/28 01:45:06;;;;;;;4.38;1.70;;;20.10;55.50;;;;;;4927036;29;20196;-48
2021/11/28 01:47:38;;;;;;;8.13;2.40;;;20.10;55.40;;;;;;4928078;29;20643;-48
2021/11/28 01:50:10;;;;;;;5.15;1.77;;;20.10;55.10;;;;;;4918657;29;20763;-47
2021/11/28 01:52:40;;;;;;;3.80;1.85;;;20.10;55.00;;;;;;4933011;29;20203;-49
2021/11/28 01:55:15;;;;;;;6.28;1.80;;;20.10;54.90;;;;;;4933255;29;20258;-47
2021/11/28 01:57:46;;;;;;;4.00;1.75;;;20.10;55.40;;;;;;4933717;29;20226;-48
2021/11/28 02:00:19;;;;;;;6.25;1.80;;;20.20;55.00;;;;;;4931644;29;20220;-48
2021/11/28 02:02:52;;;;;;;4.82;1.95;;;20.20;54.90;;;;;;4932309;29;20231;-47
2021/11/28 02:05:23;;;;;;;4.25;2.15;;;20.20;54.80;;;;;;4933141;29;20196;-47
2021/11/28 02:07:54;;;;;;;4.75;2.08;;;20.20;54.70;;;;;;4932571;29;20218;-47
2021/11/28 02:10:26;;;;;;;4.38;1.90;;;20.20;54.90;;;;;;4932619;29;20196;-50
2021/11/28 02:12:56;;;;;;;3.92;1.67;;;20.20;55.00;;;;;;4918045;29;20609;-47
2021/11/28 02:15:27;;;;;;;5.40;1.85;;;20.20;55.20;;;;;;4930709;29;20263;-49
2021/11/28 02:18:00;;;;;;;7.30;2.30;;;20.20;55.30;;;;;;4933851;29;20227;-48
2021/11/28 02:20:33;;;;;;;4.18;1.88;;;20.20;55.20;;;;;;4932090;29;20199;-48
2021/11/28 02:23:06;;;;;;;3.75;1.77;;;20.30;55.40;;;;;;4931645;29;20227;-48
2021/11/28 02:25:36;;;;;;;4.25;1.70;;;20.30;55.30;;;;;;4919761;29;20426;-49
2021/11/28 02:28:07;;;;;;;3.83;1.70;;;20.30;55.20;;;;;;4926960;29;20306;-50
2021/11/28 02:30:38;;;;;;;5.72;1.75;;;20.30;55.00;;;;;;4930167;29;20259;-48
2021/11/28 02:33:09;;;;;;;2.83;1.70;;;20.30;54.80;;;;;;4932511;29;20203;-47
2021/11/28 02:35:39;;;;;;;2.92;1.50;;;20.30;54.60;;;;;;4933875;29;20207;-50
2021/11/28 02:38:12;;;;;;;4.70;1.70;;;20.30;54.50;;;;;;4930636;29;20299;-48
2021/11/28 02:40:45;;;;;;;3.17;1.30;;;20.30;54.50;;;;;;4921869;29;20248;-48
2021/11/28 02:43:15;;;;;;;3.20;1.70;;;20.30;54.30;;;;;;4923815;29;20819;-48
2021/11/28 02:45:46;;;;;;;2.90;1.77;;;20.30;54.20;;;;;;4924842;29;20208;-47
2021/11/28 02:48:18;;;;;;;2.85;1.67;;;20.30;54.10;;;;;;4931859;29;20286;-49
2021/11/28 02:50:49;;;;;;;3.05;1.50;;;20.30;54.20;;;;;;4931158;29;20200;-50
2021/11/28 02:53:22;;;;;;;3.38;1.50;;;20.30;54.00;;;;;;4930535;29;20251;-48
2021/11/28 02:55:55;;;;;;;3.90;1.50;;;20.30;54.10;;;;;;4932712;29;20200;-47
2021/11/28 02:58:27;;;;;;;3.30;1.50;;;20.40;54.40;;;;;;4931672;29;20215;-48
2021/11/28 03:01:00;;;;;;;3.03;1.42;;;20.30;54.60;;;;;;4931389;29;20272;-48
2021/11/28 03:03:31;;;;;;;4.28;1.25;;;20.30;54.40;;;;;;4932923;29;20267;-48
2021/11/28 03:06:02;;;;;;;2.30;1.38;;;20.30;54.50;;;;;;4932029;29;20251;-47
2021/11/28 03:08:34;;;;;;;1.83;1.35;;;20.40;54.70;;;;;;4932731;29;20760;-48
2021/11/28 03:11:05;;;;;;;2.60;1.13;;;20.40;54.80;;;;;;4919788;29;20200;-48
2021/11/28 03:13:38;;;;;;;1.20;0.93;;;20.40;54.90;;;;;;4927354;29;20204;-48
2021/11/28 03:16:11;;;;;;;2.30;1.30;;;20.40;54.70;;;;;;4932184;29;20204;-50
2021/11/28 03:18:41;;;;;;;2.83;1.38;;;20.40;54.40;;;;;;4929154;29;20661;-49
2021/11/28 03:21:14;;;;;;;3.22;1.33;;;20.40;54.40;;;;;;4930981;29;20255;-50
2021/11/28 03:23:48;;;;;;;2.42;1.20;;;20.40;54.60;;;;;;4932002;29;20257;-48
2021/11/28 03:26:23;;;;;;;2.65;1.35;;;20.40;54.60;;;;;;4922982;29;20207;-50
2021/11/28 03:28:56;;;;;;;2.10;1.20;;;20.40;54.80;;;;;;4925361;29;20292;-48
2021/11/28 03:31:29;;;;;;;5.70;1.90;;;20.40;54.40;;;;;;4929115;29;20200;-47
2021/11/28 03:34:00;;;;;;;3.85;1.52;;;20.40;54.10;;;;;;4930640;29;20192;-50
2021/11/28 03:36:32;;;;;;;2.17;1.60;;;20.40;54.30;;;;;;4929680;29;20272;-47
2021/11/28 03:39:07;;;;;;;2.08;1.60;;;20.40;54.20;;;;;;4931714;29;20259;-47
2021/11/28 03:41:38;;;;;;;2.38;1.60;;;20.40;54.20;;;;;;4930324;29;20294;-48
2021/11/28 03:44:10;;;;;;;1.92;1.60;;;20.40;54.00;;;;;;4929863;29;20224;-47
2021/11/28 03:46:40;;;;;;;2.65;1.92;;;20.40;54.20;;;;;;4931102;29;20215;-48
2021/11/28 03:49:11;;;;;;;2.40;1.50;;;20.40;54.30;;;;;;4928376;29;20207;-51
2021/11/28 03:51:42;;;;;;;2.85;1.65;;;20.40;54.40;;;;;;4930316;29;20200;-49
2021/11/28 03:54:14;;;;;;;2.95;1.73;;;20.40;54.40;;;;;;4932569;29;20204;-50
2021/11/28 03:56:45;;;;;;;2.45;1.55;;;20.40;54.60;;;;;;4928843;29;20364;-47
2021/11/28 03:59:15;;;;;;;2.13;1.63;;;20.40;54.60;;;;;;4929995;29;20195;-51
2021/11/28 04:01:46;;;;;;;1.92;1.60;;;20.40;54.40;;;;;;4932272;29;20203;-49
2021/11/28 04:04:17;;;;;;;2.70;1.50;;;20.40;54.60;;;;;;4929167;29;20226;-48
2021/11/28 04:06:48;;;;;;;10.95;8.15;;;20.40;54.50;;;;;;4932202;29;20220;-48
2021/11/28 04:09:20;;;;;;;9.85;7.95;;;20.40;54.80;;;;;;4931048;29;20661;-45
2021/11/28 04:11:51;;;;;;;10.02;7.57;;;20.40;54.90;;;;;;4927973;29;20272;-46
2021/11/28 04:14:22;;;;;;;11.23;7.10;;;20.40;54.60;;;;;;4942186;28;20204;-47
2021/11/28 04:16:52;;;;;;;18.00;9.95;;;20.40;54.90;;;;;;4939736;29;20726;-48
2021/11/28 04:19:23;;;;;;;11.30;7.75;;;20.40;55.00;;;;;;4942984;28;20196;-45
2021/11/28 04:21:53;;;;;;;16.95;9.27;;;20.40;54.80;;;;;;4946425;29;20257;-45
2021/11/28 04:24:26;;;;;;;27.48;15.13;;;20.40;54.60;;;;;;4939429;29;20226;-45
2021/11/28 04:26:57;;;;;;;32.63;17.95;;;20.40;54.80;;;;;;4942117;28;20226;-45
2021/11/28 04:29:27;;;;;;;201.05;96.38;;;20.40;54.90;;;;;;4947128;29;20523;-45
2021/11/28 04:31:58;;;;;;;187.25;87.03;;;20.40;55.60;;;;;;4940007;29;20203;-45
2021/11/28 04:34:28;;;;;;;148.63;71.35;;;20.40;55.70;;;;;;4941387;28;20211;-46
2021/11/28 04:36:59;;;;;;;150.63;75.80;;;20.40;55.80;;;;;;4944986;29;20223;-46
2021/11/28 04:39:31;;;;;;;145.13;73.60;;;20.40;55.60;;;;;;4937873;28;20263;-46
2021/11/28 04:42:02;;;;;;;131.93;67.30;;;20.40;55.60;;;;;;4942645;28;20206;-47
2021/11/28 04:44:33;;;;;;;123.40;62.03;;;20.40;55.60;;;;;;4942903;28;20234;-46
2021/11/28 04:47:03;;;;;;;127.18;63.72;;;20.40;55.60;;;;;;4939254;29;20719;-46
2021/11/28 04:49:34;;;;;;;112.63;57.55;;;20.40;55.70;;;;;;4946080;29;20199;-47
2021/11/28 04:52:05;;;;;;;114.05;60.97;;;20.40;55.80;;;;;;4941100;29;20747;-45
2021/11/28 04:54:37;;;;;;;112.22;59.53;;;20.40;55.60;;;;;;4940542;28;20203;-47
2021/11/28 04:57:08;;;;;;;110.00;57.72;;;20.40;55.50;;;;;;4949007;29;20262;-47
2021/11/28 04:59:39;;;;;;;103.43;55.22;;;20.40;55.40;;;;;;4943123;29;20262;-48
2021/11/28 05:02:10;;;;;;;101.70;53.95;;;20.40;55.70;;;;;;4943892;28;20207;-47
2021/11/28 05:04:40;;;;;;;93.03;49.65;;;20.40;55.70;;;;;;4949939;29;20230;-45
2021/11/28 05:07:11;;;;;;;89.65;48.20;;;20.40;55.70;;;;;;4940894;29;20270;-49
2021/11/28 05:09:44;;;;;;;99.32;51.90;;;20.50;55.50;;;;;;4947575;28;20953;-47
2021/11/28 05:12:15;;;;;;;88.55;48.22;;;20.50;55.50;;;;;;4945539;29;20234;-45
2021/11/28 05:14:46;;;;;;;82.75;45.47;;;20.50;55.20;;;;;;4941817;28;20597;-49
2021/11/28 05:17:16;;;;;;;81.47;44.25;;;20.50;56.00;;;;;;4946643;28;20235;-47
2021/11/28 05:19:47;;;;;;;79.05;43.38;;;20.50;55.30;;;;;;4946846;29;20198;-44
2021/11/28 05:22:18;;;;;;;74.32;42.10;;;20.50;55.10;;;;;;4940586;28;20208;-48
2021/11/28 05:24:51;;;;;;;64.55;38.42;;;20.50;55.10;;;;;;4946558;29;20313;-45
2021/11/28 05:27:22;;;;;;;64.90;37.35;;;20.50;55.30;;;;;;4941352;29;20899;-44
2021/11/28 05:29:53;;;;;;;69.35;39.00;;;20.50;55.50;;;;;;4940693;29;20204;-48
2021/11/28 05:32:25;;;;;;;68.45;38.33;;;20.50;55.50;;;;;;4945151;29;20198;-48
2021/11/28 05:34:56;;;;;;;62.70;36.20;;;20.50;55.30;;;;;;4942730;29;20194;-44
2021/11/28 05:37:27;;;;;;;63.80;36.50;;;20.50;55.20;;;;;;4942130;28;20223;-45
2021/11/28 05:40:00;;;;;;;60.92;35.55;;;20.50;55.00;;;;;;4947235;29;20226;-44
2021/11/28 05:42:31;;;;;;;58.67;34.60;;;20.50;54.80;;;;;;4941969;29;20226;-44
2021/11/28 05:45:02;;;;;;;53.72;31.33;;;20.50;54.90;;;;;;4944577;28;20251;-45
2021/11/28 05:47:34;;;;;;;60.60;34.00;;;20.50;54.80;;;;;;4947552;29;20285;-44
2021/11/28 05:50:04;;;;;;;50.65;29.75;;;20.50;54.50;;;;;;4940247;29;20207;-44
2021/11/28 05:52:36;;;;;;;54.35;30.38;;;20.50;54.50;;;;;;4943579;28;20602;-45
2021/11/28 05:55:10;;;;;;;52.95;30.90;;;20.50;54.60;;;;;;4945992;29;20250;-45
2021/11/28 05:57:41;;;;;;;46.03;27.50;;;20.50;54.30;;;;;;4938953;28;20227;-46
2021/11/28 06:00:15;;;;;;;51.15;28.88;;;20.50;54.20;;;;;;4943942;29;20212;-47
2021/11/28 06:02:46;;;;;;;45.83;28.15;;;20.50;54.20;;;;;;4943223;29;20261;-46
2021/11/28 06:05:17;;;;;;;45.45;27.90;;;20.50;54.10;;;;;;4939545;28;20202;-46
2021/11/28 06:07:47;;;;;;;48.75;28.98;;;20.50;54.20;;;;;;4943894;28;20226;-46
2021/11/28 06:10:20;;;;;;;43.42;27.80;;;20.50;54.20;;;;;;4942182;29;20228;-44
2021/11/28 06:12:50;;;;;;;43.22;27.42;;;20.50;54.10;;;;;;4928367;29;20219;-45
2021/11/28 06:15:21;;;;;;;40.63;25.50;;;20.50;54.10;;;;;;4945626;28;23586;-47
2021/11/28 06:17:52;;;;;;;45.38;26.85;;;20.50;54.10;;;;;;4940747;29;20223;-47
2021/11/28 06:20:23;;;;;;;41.55;25.05;;;20.50;54.00;;;;;;4941454;28;20267;-47
2021/11/28 06:22:54;;;;;;;39.50;24.85;;;20.50;54.10;;;;;;4944556;29;20199;-47
2021/11/28 06:25:27;;;;;;;38.65;23.88;;;20.50;54.10;;;;;;4939515;29;20204;-44
2021/11/28 06:27:58;;;;;;;38.13;22.73;;;20.50;54.00;;;;;;4942821;28;20223;-45
2021/11/28 06:30:28;;;;;;;33.40;20.65;;;20.50;53.90;;;;;;4945971;29;20195;-46
2021/11/28 06:32:59;;;;;;;37.83;23.40;;;20.50;53.90;;;;;;4939701;29;20202;-44
2021/11/28 06:35:30;;;;;;;36.08;21.85;;;20.50;53.80;;;;;;4944239;28;20207;-46
2021/11/28 06:38:00;;;;;;;32.78;20.30;;;20.50;53.80;;;;;;4944625;29;20274;-44
2021/11/28 06:40:33;;;;;;;33.05;19.88;;;20.50;53.80;;;;;;4939418;29;20204;-44
2021/11/28 06:43:03;;;;;;;34.67;21.77;;;20.40;54.00;;;;;;4931987;28;20259;-36
2021/11/28 06:45:34;;;;;;;20.40;10.30;;;20.40;54.00;;;;;;4941173;29;20204;-40
2021/11/28 06:48:05;;;;;;;13.98;7.68;;;20.50;55.70;;;;;;4937396;29;20640;-36
2021/11/28 06:50:35;;;;;;;19.05;8.30;;;20.40;56.40;;;;;;4944274;28;20266;-40
2021/11/28 06:53:06;;;;;;;17.35;8.73;;;20.40;57.10;;;;;;4941081;29;20206;-36
2021/11/28 06:55:39;;;;;;;10.27;6.03;;;20.30;57.70;;;;;;4940767;29;20667;-36
2021/11/28 06:58:09;;;;;;;12.05;5.40;;;20.20;58.10;;;;;;4947592;28;20230;-48
2021/11/28 07:00:40;;;;;;;7.30;3.90;;;20.10;58.60;;;;;;4943539;29;20199;-42
2021/11/28 07:03:11;;;;;;;6.93;3.05;;;20.00;58.70;;;;;;4943425;28;20659;-39
2021/11/28 07:05:42;;;;;;;5.63;2.63;;;20.00;59.30;;;;;;4948871;29;20246;-49
2021/11/28 07:08:13;;;;;;;7.88;3.20;;;19.90;59.20;;;;;;4941416;29;20214;-45
2021/11/28 07:10:45;;;;;;;6.00;2.85;;;19.80;59.10;;;;;;4943863;28;20207;-48
2021/11/28 07:13:16;;;;;;;6.35;3.00;;;19.80;58.80;;;;;;4927447;29;20761;-48
2021/11/28 07:15:47;;;;;;;7.38;3.00;;;19.80;58.70;;;;;;4940988;29;20231;-49
2021/11/28 07:18:17;;;;;;;5.57;3.10;;;19.80;58.50;;;;;;4944738;28;21695;-49
2021/11/28 07:20:48;;;;;;;5.90;2.90;;;19.80;58.20;;;;;;4946996;28;20203;-47
2021/11/28 07:23:19;;;;;;;5.60;2.58;;;19.80;58.00;;;;;;4941050;28;20255;-47
2021/11/28 07:25:51;;;;;;;5.95;3.00;;;19.80;57.90;;;;;;4947625;28;20207;-45
2021/11/28 07:28:22;;;;;;;6.63;2.65;;;19.80;57.70;;;;;;4944117;29;20222;-52
2021/11/28 07:30:52;;;;;;;5.90;2.72;;;19.80;57.50;;;;;;4939226;28;20211;-47
2021/11/28 07:33:23;;;;;;;5.13;2.88;;;19.80;57.40;;;;;;4943680;29;20206;-45
2021/11/28 07:35:54;;;;;;;5.78;2.60;;;19.80;57.20;;;;;;4940297;29;20249;-46
2021/11/28 07:38:24;;;;;;;5.40;2.83;;;19.80;57.10;;;;;;4938532;28;20227;-47
2021/11/28 07:40:56;;;;;;;6.50;2.65;;;19.80;57.00;;;;;;4945547;28;20596;-49
2021/11/28 07:43:27;;;;;;;5.75;2.97;;;19.80;57.00;;;;;;4938228;28;20270;-47
2021/11/28 07:45:58;;;;;;;4.35;2.83;;;19.80;56.80;;;;;;4927492;29;20282;-47
2021/11/28 07:48:28;;;;;;;4.28;2.70;;;19.80;56.60;;;;;;4942954;29;20215;-48
2021/11/28 07:51:00;;;;;;;6.60;3.30;;;19.90;56.80;;;;;;4935973;29;20266;-49
2021/11/28 07:53:30;;;;;;;4.43;2.70;;;19.80;56.70;;;;;;4939722;29;20213;-47
2021/11/28 07:56:03;;;;;;;5.82;2.60;;;19.90;56.70;;;;;;4943061;29;20196;-47
2021/11/28 07:58:33;;;;;;;6.47;3.22;;;19.90;56.60;;;;;;4938064;28;20262;-46
2021/11/28 08:01:04;;;;;;;4.32;2.80;;;19.90;57.10;;;;;;4941117;28;20266;-47
2021/11/28 08:03:35;;;;;;;5.47;2.90;;;19.90;56.50;;;;;;4942008;29;20548;-51
2021/11/28 08:06:05;;;;;;;5.03;2.78;;;19.90;56.30;;;;;;4940232;28;20676;-47
2021/11/28 08:08:36;;;;;;;13.13;4.93;;;19.90;56.30;;;;;;4947466;28;20211;-47
2021/11/28 08:11:08;;;;;;;11.57;4.85;;;19.90;56.80;;;;;;4941783;29;20258;-47
2021/11/28 08:13:39;;;;;;;13.70;4.13;;;19.90;57.20;;;;;;4940293;28;20199;-48
2021/11/28 08:16:10;;;;;;;10.95;4.90;;;19.90;57.10;;;;;;4946488;29;20206;-49
2021/11/28 08:18:40;;;;;;;12.02;4.72;;;20.00;57.10;;;;;;4942515;29;20202;-49
2021/11/28 08:21:11;;;;;;;13.48;4.53;;;20.00;57.30;;;;;;4941377;28;20199;-48
2021/11/28 08:23:42;;;;;;;8.40;4.07;;;20.00;57.00;;;;;;4945711;29;20199;-48
2021/11/28 08:26:14;;;;;;;10.75;4.45;;;20.00;57.00;;;;;;4941365;28;20306;-50
2021/11/28 08:28:45;;;;;;;11.75;4.30;;;20.00;56.90;;;;;;4942266;28;20258;-47
2021/11/28 08:31:16;;;;;;;9.35;4.10;;;20.00;56.80;;;;;;4951817;28;20780;-47
2021/11/28 08:33:47;;;;;;;9.82;4.55;;;20.00;56.80;;;;;;4945781;28;20651;-46
2021/11/28 08:36:20;;;;;;;8.60;4.40;;;20.00;56.70;;;;;;4951106;29;20258;-46
2021/11/28 08:38:51;;;;;;;11.40;5.63;;;20.00;56.60;;;;;;4951072;29;20199;-48
2021/11/28 08:41:27;;;;;;;7.65;4.78;;;20.00;56.80;;;;;;4946225;28;20640;-48
2021/11/28 08:43:59;;;;;;;9.25;4.30;;;20.00;56.80;;;;;;4953023;28;20265;-48
2021/11/28 08:46:30;;;;;;;7.28;4.53;;;20.00;56.60;;;;;;4950554;29;20226;-50
2021/11/28 08:49:00;;;;;;;9.43;4.57;;;20.00;56.50;;;;;;4945511;29;20266;-51
2021/11/28 08:51:31;;;;;;;8.60;4.20;;;20.10;56.40;;;;;;4952466;28;20207;-48
2021/11/28 08:54:02;;;;;;;7.85;4.22;;;20.10;56.20;;;;;;4949331;28;20203;-50
2021/11/28 08:56:34;;;;;;;8.65;4.07;;;20.00;56.10;;;;;;4945810;29;20289;-47
2021/11/28 08:59:05;;;;;;;8.85;4.13;;;20.10;56.10;;;;;;4951628;28;20204;-48
2021/11/28 09:01:36;;;;;;;7.57;4.25;;;20.00;55.90;;;;;;4947684;29;20254;-51
2021/11/28 09:04:07;;;;;;;8.32;3.90;;;20.00;55.70;;;;;;4947269;28;20251;-47
2021/11/28 09:06:38;;;;;;;11.75;4.55;;;20.00;55.70;;;;;;4952602;29;20214;-51
2021/11/28 09:09:08;;;;;;;8.52;4.40;;;20.00;55.60;;;;;;4945044;29;20258;-46
2021/11/28 09:11:41;;;;;;;5.68;4.00;;;20.00;55.50;;;;;;4945987;28;20293;-48
2021/11/28 09:14:11;;;;;;;8.50;4.32;;;20.00;55.40;;;;;;4951495;29;20206;-48
2021/11/28 09:16:42;;;;;;;6.22;4.18;;;20.00;55.20;;;;;;4946111;28;20277;-46
2021/11/28 09:19:17;;;;;;;7.13;4.03;;;20.00;55.40;;;;;;4949217;28;20204;-48
2021/11/28 09:21:47;;;;;;;5.20;3.53;;;20.00;55.40;;;;;;4952420;28;20198;-49
2021/11/28 09:27:10;;;;;;;6.20;3.75;;;20.00;55.30;;;;;;4950338;28;20250;-48
2021/11/28 09:29:41;;;;;;;6.95;3.85;;;20.10;55.30;;;;;;4951401;29;21549;-47
2021/11/28 09:32:12;;;;;;;6.18;3.53;;;20.00;55.30;;;;;;4946319;28;20253;-49
2021/11/28 09:34:43;;;;;;;6.75;3.33;;;20.00;55.20;;;;;;4949044;28;20240;-49
2021/11/28 09:37:14;;;;;;;6.45;3.63;;;20.00;55.20;;;;;;4950207;28;20285;-49
2021/11/28 09:39:46;;;;;;;5.32;3.53;;;20.00;55.10;;;;;;4946662;28;20651;-46
2021/11/28 09:42:23;;;;;;;5.88;3.38;;;20.00;55.10;;;;;;4945080;28;20286;-48
2021/11/28 09:44:55;;;;;;;5.43;3.80;;;20.00;55.10;;;;;;4946032;29;20281;-47
2021/11/28 09:47:26;;;;;;;6.85;3.47;;;20.00;55.10;;;;;;4941906;28;20230;-49
2021/11/28 09:49:58;;;;;;;4.95;3.45;;;20.00;55.10;;;;;;4950420;28;20258;-47
2021/11/28 09:52:29;;;;;;;6.03;3.33;;;20.00;55.10;;;;;;4944203;29;20531;-45
2021/11/28 09:55:02;;;;;;;4.93;3.33;;;20.00;55.00;;;;;;4943062;28;20243;-47
2021/11/28 09:57:34;;;;;;;7.43;3.97;;;20.00;55.00;;;;;;4950488;29;20290;-48
2021/11/28 10:00:08;;;;;;;6.07;3.40;;;20.00;54.90;;;;;;4943552;29;20234;-48
2021/11/28 10:02:41;;;;;;;6.72;4.15;;;20.00;54.90;;;;;;4945101;28;20266;-50
2021/11/28 10:05:14;;;;;;;4.93;3.03;;;19.90;54.60;;;;;;4947153;29;20752;-48
2021/11/28 10:07:45;;;;;;;5.50;3.33;;;20.00;54.50;;;;;;4940990;29;20289;-45
2021/11/28 10:10:17;;;;;;;5.10;3.25;;;20.00;54.60;;;;;;4946722;28;20275;-52
2021/11/28 10:12:52;;;;;;;5.68;3.30;;;20.00;54.60;;;;;;4949066;29;20199;-46
2021/11/28 10:15:25;;;;;;;4.03;2.85;;;19.90;54.60;;;;;;4943771;29;20204;-48
2021/11/28 10:17:55;;;;;;;6.97;3.50;;;20.00;54.60;;;;;;4944349;28;20271;-50
2021/11/28 10:20:27;;;;;;;5.15;3.20;;;20.00;54.70;;;;;;4948307;29;20246;-46
2021/11/28 10:22:58;;;;;;;5.47;3.05;;;20.00;54.70;;;;;;4943457;28;20282;-47
2021/11/28 10:25:29;;;;;;;4.88;3.40;;;20.00;54.70;;;;;;4945308;28;20223;-49
2021/11/28 10:28:05;;;;;;;4.25;3.05;;;20.00;54.70;;;;;;4948208;29;20231;-49
2021/11/28 10:30:38;;;;;;;5.90;3.33;;;19.90;54.60;;;;;;4940522;28;20211;-49
2021/11/28 10:33:12;;;;;;;5.85;3.20;;;19.90;54.60;;;;;;4944086;28;20257;-47
2021/11/28 10:35:58;;;;;;;4.93;3.00;;;19.90;54.60;;;;;;4946283;29;20213;-49
2021/11/28 10:38:36;;;;;;;6.57;3.15;;;19.90;54.50;;;;;;4940718;28;20619;-46
2021/11/28 10:41:22;;;;;;;3.88;2.85;;;19.90;54.50;;;;;;4944711;29;20211;-47
2021/11/28 10:43:55;;;;;;;5.07;3.28;;;19.90;54.30;;;;;;4948392;29;20195;-52
2021/11/28 10:46:30;;;;;;;5.35;2.88;;;19.90;54.20;;;;;;4940680;29;20230;-51
2021/11/28 10:49:09;;;;;;;4.00;3.28;;;19.90;54.10;;;;;;4946330;28;20207;-48
2021/11/28 10:51:40;;;;;;;3.75;2.78;;;19.90;54.10;;;;;;4930015;29;20199;-49
2021/11/28 10:54:26;;;;;;;4.25;2.95;;;19.90;54.10;;;;;;4927977;29;20755;-48
2021/11/28 10:57:25;;;;;;;5.88;3.05;;;19.90;54.20;;;;;;4923653;29;20223;-45
2021/11/28 11:00:06;;;;;;;3.67;2.67;;;19.90;54.30;;;;;;4927190;28;20295;-48
2021/11/28 11:02:38;;;;;;;4.57;2.83;;;19.90;54.20;;;;;;4925307;29;20660;-47
2021/11/28 11:05:11;;;;;;;4.32;3.10;;;19.90;54.30;;;;;;4924377;29;20719;-47
2021/11/28 11:07:48;;;;;;;6.20;2.85;;;19.90;54.30;;;;;;4922716;29;20219;-48
2021/11/28 11:10:24;;;;;;;3.42;2.58;;;19.90;54.30;;;;;;4925333;29;20204;-50
2021/11/28 11:12:55;;;;;;;4.20;2.75;;;19.90;54.30;;;;;;4925489;29;20225;-46
2021/11/28 11:15:43;;;;;;;3.72;2.70;;;19.90;54.30;;;;;;4925145;29;20241;-47
2021/11/28 11:18:15;;;;;;;3.33;2.42;;;19.90;54.30;;;;;;4925701;29;20223;-47
2021/11/28 11:20:46;;;;;;;3.17;2.50;;;19.90;54.30;;;;;;4927161;29;20222;-47
2021/11/28 11:23:40;;;;;;;4.68;2.70;;;19.90;54.20;;;;;;4922963;29;20196;-48
2021/11/28 11:26:16;;;;;;;4.72;3.03;;;19.90;54.20;;;;;;4924032;29;20239;-48
2021/11/28 11:29:10;;;;;;;3.85;2.72;;;19.90;54.20;;;;;;4927151;29;20279;-45
2021/11/28 11:31:44;;;;;;;4.85;2.90;;;19.90;54.10;;;;;;4920820;29;20204;-45
2021/11/28 11:34:25;;;;;;;3.05;2.08;;;19.90;54.10;;;;;;4925432;29;20248;-47
2021/11/28 11:37:01;;;;;;;3.55;2.70;;;19.90;53.90;;;;;;4927270;29;20224;-47
2021/11/28 11:39:33;;;;;;;4.00;2.70;;;19.90;53.80;;;;;;4925442;29;20207;-48
2021/11/28 11:42:04;;;;;;;4.22;2.70;;;19.90;53.90;;;;;;4925024;29;20200;-47
2021/11/28 11:44:35;;;;;;;2.65;2.28;;;19.80;53.90;;;;;;4927209;29;20254;-49
2021/11/28 11:47:07;;;;;;;3.85;2.50;;;19.90;53.90;;;;;;4921655;29;20219;-48
2021/11/28 11:49:41;;;;;;;3.90;2.75;;;19.80;53.90;;;;;;4923462;29;20232;-45
2021/11/28 11:52:13;;;;;;;3.72;2.50;;;19.90;54.00;;;;;;4925136;29;20204;-52
2021/11/28 11:54:46;;;;;;;3.33;2.20;;;19.90;54.10;;;;;;4922231;29;20200;-51
2021/11/28 11:57:20;;;;;;;4.32;2.63;;;19.80;54.00;;;;;;4924320;29;20211;-50
2021/11/28 12:00:21;;;;;;;4.55;2.60;;;19.80;54.00;;;;;;4926101;29;20727;-48
2021/11/28 12:02:55;;;;;;;3.60;2.55;;;19.80;54.00;;;;;;4902277;29;20262;-48
2021/11/28 12:05:41;;;;;;;3.30;2.20;;;19.80;54.00;;;;;;4923499;29;20241;-48
2021/11/28 12:08:27;;;;;;;2.80;2.20;;;19.80;53.90;;;;;;4927062;29;20227;-49
2021/11/28 12:11:01;;;;;;;4.60;2.70;;;19.80;53.90;;;;;;4923451;29;20331;-47
2021/11/28 12:13:56;;;;;;;3.65;2.17;;;19.80;53.80;;;;;;4922447;29;20236;-46
2021/11/28 12:16:28;;;;;;;3.97;2.60;;;19.80;53.90;;;;;;4923561;29;20220;-48
2021/11/28 12:19:01;;;;;;;3.33;2.53;;;19.80;53.80;;;;;;4923349;29;20263;-48
2021/11/28 12:21:45;;;;;;;4.80;2.55;;;19.80;53.80;;;;;;4931307;29;20888;-51
2021/11/28 12:24:28;;;;;;;3.80;2.45;;;19.80;53.70;;;;;;4923469;29;20263;-51
2021/11/28 12:27:01;;;;;;;2.17;1.95;;;19.80;53.60;;;;;;4923224;29;20635;-47
2021/11/28 12:29:47;;;;;;;3.85;2.40;;;19.80;53.60;;;;;;4914626;29;20253;-46
2021/11/28 12:32:30;;;;;;;3.30;2.22;;;19.80;53.70;;;;;;4921473;29;20265;-46
2021/11/28 12:35:05;;;;;;;2.47;2.08;;;19.80;53.70;;;;;;4924339;29;20578;-47
2021/11/28 12:37:40;;;;;;;2.92;2.45;;;19.80;53.80;;;;;;4914784;29;20219;-46
2021/11/28 12:40:29;;;;;;;3.75;2.42;;;19.80;53.80;;;;;;4930315;29;20658;-51
2021/11/28 12:43:00;;;;;;;3.55;2.40;;;19.80;53.80;;;;;;4929628;29;20226;-49
2021/11/28 12:45:37;;;;;;;3.33;2.35;;;19.70;53.70;;;;;;4929562;29;20227;-49
2021/11/28 12:48:13;;;;;;;2.70;2.40;;;19.80;53.80;;;;;;4941982;29;20219;-49
2021/11/28 12:51:04;;;;;;;3.65;2.28;;;19.70;53.70;;;;;;4933815;28;20625;-48
2021/11/28 12:53:40;;;;;;;3.35;2.08;;;19.70;53.70;;;;;;4919630;29;20714;-48
2021/11/28 12:56:24;;;;;;;2.88;2.00;;;19.70;53.80;;;;;;4930403;29;20199;-48
2021/11/28 12:59:23;;;;;;;2.90;2.05;;;19.70;53.70;;;;;;4928087;29;20263;-48
2021/11/28 13:01:59;;;;;;;3.22;1.80;;;19.70;53.50;;;;;;4922076;29;20196;-48
2021/11/28 13:04:53;;;;;;;2.55;1.85;;;19.70;53.50;;;;;;4931481;29;20196;-46
2021/11/28 13:07:36;;;;;;;2.85;2.00;;;19.80;53.60;;;;;;4938113;29;20248;-46
2021/11/28 13:10:23;;;;;;;3.17;2.47;;;19.70;53.40;;;;;;4935154;28;20660;-50
2021/11/28 13:12:54;;;;;;;3.30;2.22;;;19.70;53.40;;;;;;4930215;29;20199;-50
2021/11/28 13:15:26;;;;;;;2.95;2.03;;;19.70;53.50;;;;;;4930652;29;20550;-49
2021/11/28 13:17:58;;;;;;;2.75;2.03;;;19.70;53.50;;;;;;4931250;29;20279;-47
2021/11/28 13:20:29;;;;;;;2.85;2.05;;;19.70;53.50;;;;;;4934724;29;20263;-51